createdAt,value
2017-12-20T00:02:00.668Z,99550.54
2017-12-20T00:04:29.940Z,99543.41
2017-12-20T00:06:59.037Z,99546.81
2017-12-20T00:09:27.371Z,99540.20
2017-12-20T00:11:55.704Z,99536.55
2017-12-20T00:14:24.030Z,99533.17
2017-12-20T00:16:52.360Z,99530.53
2017-12-20T00:19:20.700Z,99523.59
2017-12-20T00:21:49.041Z,99515.69
2017-12-20T00:24:17.380Z,99506.20
2017-12-20T00:26:45.724Z,99511.77
2017-12-20T00:29:14.060Z,99504.38
2017-12-20T00:31:42.404Z,99498.73
2017-12-20T00:34:10.896Z,99499.52
2017-12-20T00:36:40.857Z,99492.68
2017-12-20T00:39:09.179Z,99489.87
2017-12-20T00:41:37.519Z,99492.17
2017-12-20T00:44:05.840Z,99490.41
2017-12-20T00:46:34.946Z,99492.14
2017-12-20T00:49:03.281Z,99492.36
2017-12-20T00:51:31.633Z,99500.24
2017-12-20T00:53:59.983Z,99493.30
2017-12-20T00:56:28.309Z,99503.56
2017-12-20T00:58:56.639Z,99511.80
2017-12-20T01:01:25.038Z,99506.45
2017-12-20T01:03:53.358Z,99514.31
2017-12-20T01:06:21.693Z,99517.76
2017-12-20T01:08:50.024Z,99522.50
2017-12-20T01:11:19.107Z,99529.37
2017-12-20T01:13:47.456Z,99519.77
2017-12-20T01:16:16.559Z,99512.04
2017-12-20T01:18:45.777Z,99502.90
2017-12-20T01:21:14.103Z,99511.25
2017-12-20T01:23:42.427Z,99512.29
2017-12-20T01:26:10.778Z,99519.33
2017-12-20T01:28:39.076Z,99527.03
2017-12-20T01:31:07.390Z,99522.55
2017-12-20T01:33:35.722Z,99520.67
2017-12-20T01:36:04.053Z,99523.64
2017-12-20T01:38:32.390Z,99530.84
2017-12-20T01:41:00.727Z,99524.09
2017-12-20T01:43:29.042Z,99515.13
2017-12-20T01:45:57.385Z,99514.69
2017-12-20T01:48:25.712Z,99523.73
2017-12-20T01:50:54.059Z,99525.47
2017-12-20T01:53:22.381Z,99522.13
2017-12-20T01:55:50.712Z,99518.63
2017-12-20T01:58:19.036Z,99517.56
2017-12-20T02:00:48.134Z,99508.52
2017-12-20T02:03:17.210Z,99506.27
2017-12-20T02:05:45.522Z,99507.73
2017-12-20T02:08:13.861Z,99498.23
2017-12-20T02:10:42.191Z,99500.84
2017-12-20T02:13:10.521Z,99502.93
2017-12-20T02:15:38.856Z,99504.35
2017-12-20T02:18:07.185Z,99498.43
2017-12-20T02:20:35.521Z,99497.78
2017-12-20T02:23:03.861Z,99497.42
2017-12-20T02:25:32.198Z,99490.72
2017-12-20T02:28:00.544Z,99489.46
2017-12-20T02:30:28.885Z,99492.73
2017-12-20T02:32:57.966Z,99497.81
2017-12-20T02:35:26.297Z,99496.35
2017-12-20T02:37:54.644Z,99503.16
2017-12-20T02:40:22.989Z,99505.02
2017-12-20T02:42:51.320Z,99509.09
2017-12-20T02:45:19.665Z,99503.08
2017-12-20T02:47:48.005Z,99503.59
2017-12-20T02:50:16.343Z,99508.95
2017-12-20T02:52:44.652Z,99502.62
2017-12-20T02:55:12.989Z,99498.45
2017-12-20T02:57:41.316Z,99504.63
2017-12-20T03:00:09.657Z,99497.42
2017-12-20T03:02:37.990Z,99499.83
2017-12-20T03:05:06.330Z,99509.61
2017-12-20T03:07:34.668Z,99505.01
2017-12-20T03:10:02.999Z,99508.55
2017-12-20T03:12:31.332Z,99502.12
2017-12-20T03:14:59.665Z,99506.84
2017-12-20T03:17:28.005Z,99502.30
2017-12-20T03:19:56.395Z,99506.05
2017-12-20T03:22:24.726Z,99503.89
2017-12-20T03:24:53.070Z,99495.72
2017-12-20T03:27:21.417Z,99496.13
2017-12-20T03:29:49.753Z,99498.88
2017-12-20T03:32:18.095Z,99502.49
2017-12-20T03:34:46.449Z,99503.17
2017-12-20T03:37:14.793Z,99505.18
2017-12-20T03:39:43.891Z,99507.19
2017-12-20T03:42:12.210Z,99493.53
2017-12-20T03:44:40.539Z,99494.89
2017-12-20T03:47:09.637Z,99491.73
2017-12-20T03:49:37.973Z,99495.29
2017-12-20T03:52:06.293Z,99486.22
2017-12-20T03:54:35.406Z,99488.67
2017-12-20T03:57:03.732Z,99490.96
2017-12-20T03:59:32.061Z,99486.28
2017-12-20T04:02:00.377Z,99488.80
2017-12-20T04:04:28.732Z,99487.22
2017-12-20T04:06:57.068Z,99494.84
2017-12-20T04:09:25.396Z,99495.04
2017-12-20T04:11:53.719Z,99503.91
2017-12-20T04:14:22.072Z,99498.16
2017-12-20T04:16:50.394Z,99471.45
2017-12-20T04:19:19.580Z,99495.70
2017-12-20T04:21:47.914Z,99499.09
2017-12-20T04:24:16.249Z,99502.32
2017-12-20T04:26:44.887Z,99497.11
2017-12-20T04:29:13.210Z,99494.49
2017-12-20T04:31:41.535Z,99491.45
2017-12-20T04:34:09.899Z,99492.30
2017-12-20T04:36:38.244Z,99495.63
2017-12-20T04:39:06.591Z,99490.75
2017-12-20T04:41:34.916Z,99487.70
2017-12-20T04:44:04.321Z,99495.44
2017-12-20T04:46:32.666Z,99498.31
2017-12-20T04:49:01.021Z,99496.84
2017-12-20T04:51:29.347Z,99489.65
2017-12-20T04:53:57.685Z,99493.20
2017-12-20T04:56:26.005Z,99491.63
2017-12-20T04:58:54.318Z,99495.89
2017-12-20T05:01:22.660Z,99495.56
2017-12-20T05:03:51.010Z,99501.38
2017-12-20T05:06:20.125Z,99487.30
2017-12-20T05:08:48.481Z,99476.85
2017-12-20T05:11:17.567Z,99482.13
2017-12-20T05:13:45.927Z,99479.74
2017-12-20T05:16:14.258Z,99478.21
2017-12-20T05:18:42.575Z,99485.81
2017-12-20T05:21:10.913Z,99492.23
2017-12-20T05:23:39.229Z,99479.31
2017-12-20T05:26:07.571Z,99496.69
2017-12-20T05:28:35.903Z,99499.85
2017-12-20T05:31:04.227Z,99492.36
2017-12-20T05:33:32.567Z,99495.45
2017-12-20T05:36:01.669Z,99492.33
2017-12-20T05:38:29.995Z,99494.03
2017-12-20T05:40:58.341Z,99497.80
2017-12-20T05:43:26.667Z,99505.38
2017-12-20T05:45:54.990Z,99507.91
2017-12-20T05:48:23.321Z,99511.41
2017-12-20T05:50:51.654Z,99503.10
2017-12-20T05:53:20.471Z,99507.04
2017-12-20T05:55:48.826Z,99496.55
2017-12-20T05:58:17.165Z,99506.50
2017-12-20T06:00:46.487Z,99502.91
2017-12-20T06:03:14.821Z,99507.38
2017-12-20T06:05:43.736Z,99512.23
2017-12-20T06:08:12.077Z,99512.25
2017-12-20T06:10:40.406Z,99518.42
2017-12-20T06:13:09.486Z,99519.22
2017-12-20T06:15:37.872Z,99523.27
2017-12-20T06:18:06.207Z,99525.67
2017-12-20T06:20:34.540Z,99537.61
2017-12-20T06:23:02.974Z,99526.78
2017-12-20T06:25:31.599Z,99531.50
2017-12-20T06:28:00.723Z,99533.75
2017-12-20T06:30:29.052Z,99531.40
2017-12-20T06:32:57.376Z,99529.50
2017-12-20T06:35:25.712Z,99523.83
2017-12-20T06:37:54.797Z,99519.62
2017-12-20T06:40:23.115Z,99520.77
2017-12-20T06:42:51.445Z,99519.72
2017-12-20T06:45:19.782Z,99520.66
2017-12-20T06:47:48.124Z,99518.48
2017-12-20T06:50:16.465Z,99525.09
2017-12-20T06:52:44.814Z,99528.87
2017-12-20T06:55:13.155Z,99529.86
2017-12-20T06:57:42.261Z,99527.17
2017-12-20T07:00:10.587Z,99534.15
2017-12-20T07:02:38.916Z,99537.84
2017-12-20T07:05:07.258Z,99539.47
2017-12-20T07:07:35.575Z,99541.22
2017-12-20T07:10:03.925Z,99544.92
2017-12-20T07:12:33.160Z,99549.95
2017-12-20T07:15:01.488Z,99549.98
2017-12-20T07:17:29.814Z,99548.45
2017-12-20T07:19:58.151Z,99554.05
2017-12-20T07:22:26.485Z,99553.89
2017-12-20T07:24:54.846Z,99556.16
2017-12-20T07:27:23.216Z,99566.75
2017-12-20T07:29:51.562Z,99570.34
2017-12-20T07:32:19.901Z,99567.36
2017-12-20T07:34:48.226Z,99577.63
2017-12-20T07:37:16.545Z,99567.67
2017-12-20T07:39:44.890Z,99570.45
2017-12-20T07:42:13.205Z,99582.84
2017-12-20T07:44:41.542Z,99584.55
2017-12-20T07:47:10.630Z,99581.73
2017-12-20T07:49:38.991Z,99587.63
2017-12-20T07:52:07.330Z,99586.34
2017-12-20T07:54:35.681Z,99585.12
2017-12-20T07:57:04.775Z,99587.88
2017-12-20T07:59:33.100Z,99583.80
2017-12-20T08:02:01.437Z,99582.53
2017-12-20T08:04:29.773Z,99586.66
2017-12-20T08:06:58.114Z,99589.58
2017-12-20T08:09:26.484Z,99591.86
2017-12-20T08:11:54.815Z,99596.48
2017-12-20T08:14:25.900Z,99598.63
2017-12-20T08:16:54.223Z,99612.78
2017-12-20T08:19:22.566Z,99611.84
2017-12-20T08:21:50.905Z,99608.22
2017-12-20T08:24:19.996Z,99610.33
2017-12-20T08:26:48.339Z,99614.10
2017-12-20T08:29:16.669Z,99613.27
2017-12-20T08:31:45.772Z,99619.09
2017-12-20T08:34:14.103Z,99623.41
2017-12-20T08:36:42.795Z,99631.31
2017-12-20T08:39:11.128Z,99634.11
2017-12-20T08:41:39.474Z,99621.95
2017-12-20T08:44:08.551Z,99619.15
2017-12-20T08:46:36.896Z,99568.03
2017-12-20T08:49:05.275Z,99618.95
2017-12-20T08:51:33.625Z,99617.02
2017-12-20T08:54:01.961Z,99618.84
2017-12-20T08:56:30.307Z,99621.11
2017-12-20T08:58:58.653Z,99626.52
2017-12-20T09:01:26.980Z,99620.77
2017-12-20T09:03:55.308Z,99612.67
2017-12-20T09:06:23.669Z,99608.66
2017-12-20T09:08:52.008Z,99615.69
2017-12-20T09:11:20.337Z,99613.55
2017-12-20T09:13:48.669Z,99617.80
2017-12-20T09:16:16.998Z,99620.23
2017-12-20T09:18:45.339Z,99615.95
2017-12-20T09:21:13.679Z,99623.77
2017-12-20T09:23:43.113Z,99627.94
2017-12-20T09:26:11.457Z,99631.86
2017-12-20T09:28:39.798Z,99629.91
2017-12-20T09:31:08.141Z,99642.13
2017-12-20T09:33:36.481Z,99638.70
2017-12-20T09:36:04.795Z,99634.58
2017-12-20T09:38:33.118Z,99637.97
2017-12-20T09:41:01.443Z,99635.98
2017-12-20T09:43:29.755Z,99635.80
2017-12-20T09:45:58.086Z,99641.11
2017-12-20T09:48:26.406Z,99635.80
2017-12-20T09:50:54.755Z,99635.73
2017-12-20T09:53:23.103Z,99639.02
2017-12-20T09:55:51.427Z,99639.05
2017-12-20T09:58:19.753Z,99644.23
2017-12-20T10:00:48.084Z,99642.45
2017-12-20T10:03:16.618Z,99645.28
2017-12-20T10:05:44.935Z,99638.19
2017-12-20T10:08:13.272Z,99637.39
2017-12-20T10:10:41.588Z,99636.95
2017-12-20T10:13:09.936Z,99627.13
2017-12-20T10:15:38.270Z,99621.83
2017-12-20T10:18:06.593Z,99642.98
2017-12-20T10:20:34.919Z,99649.76
2017-12-20T10:23:04.015Z,99641.25
2017-12-20T10:25:32.351Z,99636.05
2017-12-20T10:28:00.763Z,99639.23
2017-12-20T10:30:29.869Z,99644.33
2017-12-20T10:32:58.971Z,99639.48
2017-12-20T10:35:28.064Z,99632.83
2017-12-20T10:37:57.147Z,99631.78
2017-12-20T10:40:25.518Z,99629.38
2017-12-20T10:42:54.927Z,99637.07
2017-12-20T10:45:24.036Z,99638.80
2017-12-20T10:47:52.361Z,99644.81
2017-12-20T10:50:20.704Z,99640.95
2017-12-20T10:52:49.049Z,99626.00
2017-12-20T10:55:17.373Z,99625.70
2017-12-20T10:57:45.686Z,99616.20
2017-12-20T11:00:14.029Z,99619.53
2017-12-20T11:02:42.354Z,99618.73
2017-12-20T11:05:10.686Z,99624.62
2017-12-20T11:07:39.789Z,99622.70
2017-12-20T11:10:08.117Z,99621.81
2017-12-20T11:12:37.217Z,99626.42
2017-12-20T11:15:05.556Z,99617.46
2017-12-20T11:17:33.876Z,99625.60
2017-12-20T11:20:02.228Z,99621.08
2017-12-20T11:22:30.529Z,99623.88
2017-12-20T11:24:59.635Z,99619.55
2017-12-20T11:27:27.954Z,99619.80
2017-12-20T11:29:56.285Z,99615.14
2017-12-20T11:32:25.384Z,99615.38
2017-12-20T11:34:53.744Z,99617.38
2017-12-20T11:37:22.080Z,99617.61
2017-12-20T11:39:50.418Z,99616.09
2017-12-20T11:42:18.756Z,99619.69
2017-12-20T11:44:47.091Z,99621.94
2017-12-20T11:47:15.414Z,99612.45
2017-12-20T11:49:43.749Z,99612.72
2017-12-20T11:52:12.201Z,99607.17
2017-12-20T11:54:40.540Z,99608.47
2017-12-20T11:57:08.850Z,99604.69
2017-12-20T11:59:37.965Z,99594.89
2017-12-20T12:02:06.286Z,99599.19
2017-12-20T12:04:34.603Z,99595.39
2017-12-20T12:07:02.922Z,99598.45
2017-12-20T12:09:31.260Z,99597.59
2017-12-20T12:12:00.349Z,99594.02
2017-12-20T12:14:29.649Z,99588.80
2017-12-20T12:16:57.980Z,99597.72
2017-12-20T12:19:26.302Z,99593.00
2017-12-20T12:21:55.400Z,99594.92
2017-12-20T12:24:23.737Z,99596.13
2017-12-20T12:26:52.050Z,99585.09
2017-12-20T12:29:21.150Z,99586.91
2017-12-20T12:31:50.226Z,99575.32
2017-12-20T12:34:18.564Z,99571.50
2017-12-20T12:36:46.920Z,99573.29
2017-12-20T12:39:15.237Z,99577.42
2017-12-20T12:41:43.558Z,99573.69
2017-12-20T12:44:12.673Z,99579.62
2017-12-20T12:46:41.500Z,99576.95
2017-12-20T12:49:09.816Z,99580.44
2017-12-20T12:51:38.161Z,99576.88
2017-12-20T12:54:06.491Z,99573.92
2017-12-20T12:56:34.833Z,99565.97
2017-12-20T12:59:03.157Z,99571.06
2017-12-20T13:01:31.541Z,99566.22
2017-12-20T13:03:59.864Z,99564.45
2017-12-20T13:06:28.191Z,99559.77
2017-12-20T13:08:56.572Z,99560.20
2017-12-20T13:11:24.907Z,99557.50
2017-12-20T13:13:53.223Z,99559.81
2017-12-20T13:16:21.545Z,99563.43
2017-12-20T13:18:49.859Z,99559.67
2017-12-20T13:21:18.179Z,99564.13
2017-12-20T13:23:46.494Z,99568.33
2017-12-20T13:26:14.874Z,99566.44
2017-12-20T13:28:43.201Z,99571.88
2017-12-20T13:31:11.543Z,99573.41
2017-12-20T13:33:39.870Z,99570.25
2017-12-20T13:36:08.221Z,99574.59
2017-12-20T13:38:36.548Z,99570.83
2017-12-20T13:41:04.896Z,99575.33
2017-12-20T13:43:33.231Z,99582.75
2017-12-20T13:46:01.586Z,99587.16
2017-12-20T13:48:29.933Z,99587.28
2017-12-20T13:50:58.270Z,99586.78
2017-12-20T13:53:26.596Z,99588.23
2017-12-20T13:55:54.916Z,99590.95
2017-12-20T13:58:24.013Z,99593.38
2017-12-20T14:00:52.394Z,99596.33
2017-12-20T14:03:20.719Z,99591.50
2017-12-20T14:05:49.062Z,99590.41
2017-12-20T14:08:17.396Z,99592.09
2017-12-20T14:10:46.518Z,99599.21
2017-12-20T14:13:14.863Z,99600.30
2017-12-20T14:15:43.203Z,99608.61
2017-12-20T14:18:11.523Z,99606.55
2017-12-20T14:20:39.859Z,99609.23
2017-12-20T14:23:08.187Z,99605.67
2017-12-20T14:25:37.297Z,99607.05
2017-12-20T14:28:06.408Z,99608.67
2017-12-20T14:30:34.745Z,99612.15
2017-12-20T14:33:03.097Z,99611.48
2017-12-20T14:35:31.428Z,99614.30
2017-12-20T14:37:59.752Z,99611.72
2017-12-20T14:40:28.075Z,99610.56
2017-12-20T14:42:56.403Z,99612.28
2017-12-20T14:45:25.596Z,99619.94
2017-12-20T14:47:53.934Z,99617.55
2017-12-20T14:50:23.059Z,99613.73
2017-12-20T14:52:51.392Z,99617.64
2017-12-20T14:55:19.718Z,99617.80
2017-12-20T14:57:48.063Z,99617.92
2017-12-20T15:00:17.329Z,99618.64
2017-12-20T15:02:45.666Z,99618.61
2017-12-20T15:05:14.002Z,99619.65
2017-12-20T15:07:42.348Z,99615.55
2017-12-20T15:10:10.675Z,99617.23
2017-12-20T15:12:38.999Z,99614.23
2017-12-20T15:15:07.335Z,99620.09
2017-12-20T15:17:35.692Z,99626.52
2017-12-20T15:20:04.787Z,99627.55
2017-12-20T15:22:33.875Z,99631.55
2017-12-20T15:25:02.223Z,99623.03
2017-12-20T15:27:30.548Z,99626.03
2017-12-20T15:29:59.669Z,99632.11
2017-12-20T15:32:27.993Z,99641.52
2017-12-20T15:34:56.338Z,99644.94
2017-12-20T15:37:24.659Z,99645.94
2017-12-20T15:39:53.009Z,99644.52
2017-12-20T15:42:21.323Z,99646.99
2017-12-20T15:44:50.403Z,99636.95
2017-12-20T15:47:18.737Z,99640.44
2017-12-20T15:49:47.056Z,99642.98
2017-12-20T15:52:15.400Z,99640.73
2017-12-20T15:54:43.722Z,99631.88
2017-12-20T15:57:12.035Z,99633.73
2017-12-20T15:59:40.362Z,99640.77
2017-12-20T16:02:08.702Z,99639.02
2017-12-20T16:04:37.018Z,99639.87
2017-12-20T16:07:05.346Z,99644.23
2017-12-20T16:09:34.515Z,99648.63
2017-12-20T16:12:02.836Z,99648.24
2017-12-20T16:14:31.165Z,99643.13
2017-12-20T16:17:00.238Z,99641.55
2017-12-20T16:19:28.569Z,99634.14
2017-12-20T16:21:56.894Z,99636.45
2017-12-20T16:24:25.272Z,99642.41
2017-12-20T16:26:53.643Z,99638.66
2017-12-20T16:29:21.979Z,99637.48
2017-12-20T16:31:50.328Z,99646.76
2017-12-20T16:34:18.676Z,99648.69
2017-12-20T16:36:47.009Z,99648.63
2017-12-20T16:39:15.350Z,99652.03
2017-12-20T16:41:43.692Z,99651.48
2017-12-20T16:44:13.007Z,99646.78
2017-12-20T16:46:41.354Z,99645.91
2017-12-20T16:49:09.695Z,99641.97
2017-12-20T16:51:38.797Z,99639.16
2017-12-20T16:54:08.057Z,99636.96
2017-12-20T16:56:36.390Z,99641.95
2017-12-20T16:59:04.706Z,99645.55
2017-12-20T17:01:33.053Z,99643.25
2017-12-20T17:04:06.600Z,99633.91
2017-12-20T17:06:34.932Z,99628.64
2017-12-20T17:09:03.261Z,99635.67
2017-12-20T17:11:31.613Z,99642.45
2017-12-20T17:13:59.937Z,99630.95
2017-12-20T17:16:29.101Z,99624.81
2017-12-20T17:18:57.425Z,99623.09
2017-12-20T17:21:25.764Z,99629.75
2017-12-20T17:23:54.118Z,99635.33
2017-12-20T17:26:22.444Z,99638.49
2017-12-20T17:28:51.530Z,99646.97
2017-12-20T17:31:19.845Z,99646.80
2017-12-20T17:33:48.183Z,99641.04
2017-12-20T17:36:17.375Z,99644.69
2017-12-20T17:38:45.733Z,99661.50
2017-12-20T17:41:15.123Z,99668.02
2017-12-20T17:43:43.485Z,99661.20
2017-12-20T17:46:11.808Z,99664.13
2017-12-20T17:48:40.270Z,99664.89
2017-12-20T17:51:08.716Z,99671.14
2017-12-20T17:53:37.073Z,99665.15
2017-12-20T17:56:05.621Z,99669.26
2017-12-20T17:58:34.044Z,99671.61
2017-12-20T18:01:02.411Z,99668.85
2017-12-20T18:03:31.024Z,99666.61
2017-12-20T18:05:59.406Z,99657.60
2017-12-20T18:08:27.740Z,99662.09
2017-12-20T18:10:56.082Z,99668.70
2017-12-20T18:13:24.493Z,99677.08
2017-12-20T18:15:52.843Z,99681.70
2017-12-20T18:18:21.179Z,99675.34
2017-12-20T18:20:49.572Z,99680.45
2017-12-20T18:23:18.059Z,99686.45
2017-12-20T18:25:46.618Z,99683.27
2017-12-20T18:28:14.979Z,99683.60
2017-12-20T18:30:43.350Z,99675.78
2017-12-20T18:33:12.480Z,99673.64
2017-12-20T18:35:40.995Z,99674.09
2017-12-20T18:38:10.354Z,99676.18
2017-12-20T18:40:38.773Z,99682.72
2017-12-20T18:43:07.223Z,99683.97
2017-12-20T18:45:36.110Z,99680.08
2017-12-20T18:48:04.735Z,99680.86
2017-12-20T18:50:34.088Z,99676.31
2017-12-20T18:53:03.091Z,99681.09
2017-12-20T18:55:32.008Z,99672.45
2017-12-20T18:58:01.733Z,99668.98
2017-12-20T19:00:30.890Z,99672.19
2017-12-20T19:02:59.950Z,99668.08
2017-12-20T19:05:29.615Z,99663.42
2017-12-20T19:07:59.143Z,99659.38
2017-12-20T19:10:28.909Z,99656.12
2017-12-20T19:12:58.660Z,99666.88
2017-12-20T19:15:28.558Z,99658.48
2017-12-20T19:17:58.315Z,99653.95
2017-12-20T19:20:28.093Z,99659.58
2017-12-20T19:22:57.863Z,99660.98
2017-12-20T19:25:27.883Z,99661.00
2017-12-20T19:27:57.662Z,99661.41
2017-12-20T19:30:27.736Z,99659.45
2017-12-20T19:32:57.553Z,99658.12
2017-12-20T19:35:27.387Z,99659.73
2017-12-20T19:37:57.813Z,99662.05
2017-12-20T19:40:27.785Z,99658.09
2017-12-20T19:42:57.730Z,99652.65
2017-12-20T19:45:27.680Z,99654.26
2017-12-20T19:47:57.670Z,99655.15
2017-12-20T19:50:27.718Z,99645.94
2017-12-20T19:52:57.565Z,99647.50
2017-12-20T19:55:27.454Z,99650.50
2017-12-20T19:57:58.095Z,99657.19
2017-12-20T20:00:27.971Z,99663.90
2017-12-20T20:02:57.949Z,99667.20
2017-12-20T20:05:27.940Z,99675.44
2017-12-20T20:07:57.803Z,99678.61
2017-12-20T20:10:27.749Z,99682.16
2017-12-20T20:12:57.626Z,99690.41
2017-12-20T20:15:27.596Z,99681.27
2017-12-20T20:17:57.447Z,99678.67
2017-12-20T20:20:27.359Z,99677.45
2017-12-20T20:22:58.050Z,99679.43
2017-12-20T20:25:28.671Z,99680.20
2017-12-20T20:27:59.344Z,99677.66
2017-12-20T20:30:29.225Z,99683.73
2017-12-20T20:32:59.210Z,99683.28
2017-12-20T20:35:29.067Z,99678.73
2017-12-20T20:47:39.033Z,99663.54
2017-12-20T20:50:08.921Z,99667.27
2017-12-20T20:52:38.834Z,99665.21
2017-12-20T20:55:08.625Z,99663.81
2017-12-20T20:57:40.337Z,99666.34
2017-12-20T21:00:10.259Z,99673.58
2017-12-20T21:02:40.083Z,99668.13
2017-12-20T21:05:10.731Z,99664.30
2017-12-20T21:07:40.596Z,99656.83
2017-12-20T21:10:11.427Z,99668.55
2017-12-20T21:12:41.299Z,99678.53
2017-12-20T21:15:11.111Z,99672.22
2017-12-20T21:17:40.958Z,99671.77
2017-12-20T21:20:10.850Z,99675.45
2017-12-20T21:22:41.883Z,99666.48
2017-12-20T21:25:12.642Z,99668.80
2017-12-20T21:27:42.530Z,99671.02
2017-12-20T21:30:13.134Z,99678.50
2017-12-20T21:32:43.805Z,99686.55
2017-12-20T21:35:13.713Z,99680.84
2017-12-20T21:37:44.840Z,99671.85
2017-12-20T21:40:17.239Z,99676.09
2017-12-20T21:42:47.127Z,99683.20
2017-12-20T21:45:17.000Z,99683.76
2017-12-20T21:47:46.862Z,99681.72
2017-12-20T21:50:17.227Z,99671.61
2017-12-20T21:52:48.089Z,99667.86
2017-12-20T21:55:23.778Z,99673.07
2017-12-20T21:58:09.391Z,99671.91
2017-12-20T22:00:39.280Z,99665.39
2017-12-20T22:03:09.088Z,99663.59
2017-12-20T22:05:39.070Z,99654.23
2017-12-20T22:08:08.877Z,99670.05
2017-12-20T22:10:38.796Z,99687.41
2017-12-20T22:13:09.703Z,99692.20
2017-12-20T22:15:38.803Z,99680.73
2017-12-20T22:18:07.880Z,99697.01
2017-12-20T22:20:36.500Z,99691.34
2017-12-20T22:23:04.895Z,99682.09
2017-12-20T22:25:33.248Z,99690.58
2017-12-20T22:28:01.603Z,99677.23
2017-12-20T22:30:29.972Z,99664.05
2017-12-20T22:32:58.295Z,99669.57
2017-12-20T22:35:27.402Z,99678.29
2017-12-20T22:37:55.723Z,99669.78
2017-12-20T22:40:24.078Z,99668.12
2017-12-20T22:42:52.404Z,99667.69
2017-12-20T22:45:20.758Z,99666.31
2017-12-20T22:47:49.071Z,99664.30
2017-12-20T22:50:17.444Z,99680.00
2017-12-20T22:52:45.763Z,99672.09
2017-12-20T22:55:14.112Z,99671.40
2017-12-20T22:57:43.238Z,99681.59
2017-12-20T23:00:11.618Z,99679.33
2017-12-20T23:02:39.922Z,99675.78
2017-12-20T23:05:08.278Z,99682.98
2017-12-20T23:07:36.609Z,99676.05
2017-12-20T23:10:04.932Z,99662.91
2017-12-20T23:12:33.272Z,99663.85
2017-12-20T23:15:02.367Z,99662.58
2017-12-20T23:17:30.705Z,99651.95
2017-12-20T23:19:59.056Z,99648.19
2017-12-20T23:22:27.371Z,99652.70
2017-12-20T23:24:55.694Z,99653.20
2017-12-20T23:27:24.548Z,99652.52
2017-12-20T23:29:52.872Z,99667.97
2017-12-20T23:32:21.209Z,99678.96
2017-12-20T23:34:50.343Z,99682.70
2017-12-20T23:37:18.701Z,99690.85
2017-12-20T23:39:47.032Z,99685.94
2017-12-20T23:42:15.359Z,99687.48
2017-12-20T23:44:43.677Z,99690.23
2017-12-20T23:47:12.013Z,99694.69
2017-12-20T23:49:41.131Z,99688.64
2017-12-20T23:52:09.443Z,99671.09
2017-12-20T23:54:37.764Z,99659.66
2017-12-20T23:57:06.087Z,99659.31
2017-12-20T23:59:34.991Z,99666.20
